createdAt,value
2022-08-20T00:00:20.452Z,5.03
2022-08-20T00:03:27.604Z,4.10
2022-08-20T00:06:30.610Z,4.80
2022-08-20T00:09:36.458Z,4.77
2022-08-20T00:12:45.173Z,4.70
2022-08-20T00:15:48.402Z,4.03
2022-08-20T00:18:51.855Z,4.40
2022-08-20T00:21:58.370Z,4.53
2022-08-20T00:25:03.041Z,3.23
2022-08-20T00:28:07.045Z,3.57
2022-08-20T00:31:12.191Z,3.57
2022-08-20T00:34:15.385Z,3.57
2022-08-20T00:37:18.439Z,3.40
2022-08-20T00:40:27.015Z,3.50
2022-08-20T00:43:34.525Z,3.27
2022-08-20T00:46:38.731Z,2.90
2022-08-20T00:49:41.987Z,4.10
2022-08-20T00:52:49.742Z,5.57
2022-08-20T00:55:54.664Z,3.57
2022-08-20T00:58:57.931Z,3.37
2022-08-20T01:02:02.983Z,3.50
2022-08-20T01:05:09.241Z,3.20
2022-08-20T01:08:12.900Z,3.10
2022-08-20T01:11:20.417Z,3.20
2022-08-20T01:14:31.805Z,3.30
2022-08-20T01:17:37.664Z,3.37
2022-08-20T01:20:43.725Z,3.10
2022-08-20T01:23:55.078Z,3.67
2022-08-20T01:27:04.295Z,3.70
2022-08-20T01:30:09.003Z,3.63
2022-08-20T01:33:12.375Z,4.37
2022-08-20T01:36:17.522Z,4.43
2022-08-20T01:39:23.867Z,4.43
2022-08-20T01:42:34.757Z,4.17
2022-08-20T01:45:40.019Z,4.63
2022-08-20T01:48:44.137Z,4.60
2022-08-20T01:51:47.467Z,4.60
2022-08-20T01:54:52.559Z,6.67
2022-08-20T01:57:58.042Z,4.30
2022-08-20T02:01:01.276Z,4.50
2022-08-20T02:04:07.565Z,4.30
2022-08-20T02:07:20.423Z,4.03
2022-08-20T02:10:23.968Z,4.13
2022-08-20T02:13:28.301Z,3.90
2022-08-20T02:16:34.547Z,4.13
2022-08-20T02:19:41.559Z,4.77
2022-08-20T02:22:49.864Z,4.27
2022-08-20T02:25:53.857Z,4.37
2022-08-20T02:29:01.304Z,3.90
2022-08-20T02:32:32.717Z,3.97
2022-08-20T02:35:29.587Z,4.23
2022-08-20T02:38:34.865Z,3.83
2022-08-20T02:41:39.337Z,4.20
2022-08-20T02:44:44.526Z,4.93
2022-08-20T02:47:48.095Z,5.67
2022-08-20T02:50:53.399Z,5.93
2022-08-20T02:53:56.406Z,7.93
2022-08-20T02:56:59.485Z,8.73
2022-08-20T03:00:06.247Z,8.10
2022-08-20T03:03:10.801Z,8.80
2022-08-20T03:06:15.067Z,11.10
2022-08-20T03:09:18.055Z,9.40
2022-08-20T03:12:21.051Z,11.30
2022-08-20T03:15:25.391Z,11.60
2022-08-20T03:18:37.170Z,9.83
2022-08-20T03:21:40.208Z,11.73
2022-08-20T03:24:43.199Z,10.90
2022-08-20T03:27:47.124Z,11.73
2022-08-20T03:30:59.396Z,13.17
2022-08-20T03:34:02.507Z,15.10
2022-08-20T03:37:05.571Z,12.53
2022-08-20T03:40:12.155Z,13.13
2022-08-20T03:43:15.224Z,15.07
2022-08-20T03:46:23.076Z,12.90
2022-08-20T03:49:26.729Z,14.27
2022-08-20T03:52:30.015Z,12.90
2022-08-20T03:55:33.245Z,13.37
2022-08-20T03:58:36.642Z,12.10
2022-08-20T04:01:46.055Z,13.47
2022-08-20T04:04:49.676Z,12.70
2022-08-20T04:07:53.011Z,11.23
2022-08-20T04:10:59.614Z,11.97
2022-08-20T04:14:02.585Z,11.73
2022-08-20T04:17:11.660Z,11.17
2022-08-20T04:20:19.011Z,13.17
2022-08-20T04:23:22.768Z,10.73
2022-08-20T04:26:25.846Z,10.47
2022-08-20T04:29:32.037Z,9.70
2022-08-20T04:32:37.047Z,10.90
2022-08-20T04:35:41.363Z,9.70
2022-08-20T04:38:49.697Z,8.80
2022-08-20T04:41:53.947Z,10.33
2022-08-20T04:44:56.929Z,9.00
2022-08-20T04:48:05.399Z,9.30
2022-08-20T04:51:09.508Z,9.17
2022-08-20T04:54:14.222Z,9.50
2022-08-20T04:57:17.219Z,8.37
2022-08-20T05:00:20.189Z,8.13
2022-08-20T05:03:25.237Z,9.07
2022-08-20T05:06:31.880Z,10.73
2022-08-20T05:09:43.843Z,10.83
2022-08-20T05:12:56.957Z,11.50
2022-08-20T05:16:01.946Z,12.07
2022-08-20T05:19:06.878Z,11.10
2022-08-20T05:22:10.081Z,11.30
2022-08-20T05:25:14.520Z,11.17
2022-08-20T05:28:21.343Z,9.93
2022-08-20T05:31:24.341Z,10.97
2022-08-20T05:34:37.030Z,11.40
2022-08-20T05:37:42.085Z,11.57
2022-08-20T05:40:46.359Z,11.07
2022-08-20T05:43:49.353Z,10.93
2022-08-20T05:46:54.698Z,9.87
2022-08-20T05:49:59.022Z,11.33
2022-08-20T05:53:02.439Z,10.77
2022-08-20T05:56:05.686Z,10.67
2022-08-20T05:59:09.904Z,11.50
2022-08-20T06:02:27.006Z,9.77
2022-08-20T06:05:31.357Z,10.87
2022-08-20T06:08:34.543Z,9.93
2022-08-20T06:11:37.718Z,11.20
2022-08-20T06:14:40.755Z,10.97
2022-08-20T06:17:43.767Z,9.90
2022-08-20T06:20:48.092Z,9.60
2022-08-20T06:23:56.722Z,9.03
2022-08-20T06:27:03.926Z,8.00
2022-08-20T06:30:08.412Z,9.70
2022-08-20T06:33:12.137Z,8.77
2022-08-20T06:36:18.864Z,10.93
2022-08-20T06:39:22.160Z,9.40
2022-08-20T06:42:25.148Z,10.30
2022-08-20T06:45:31.332Z,9.37
2022-08-20T06:48:34.750Z,8.50
2022-08-20T06:51:40.134Z,8.07
2022-08-20T06:54:44.606Z,7.33
2022-08-20T06:57:48.283Z,9.93
2022-08-20T07:00:51.388Z,8.13
2022-08-20T07:03:56.142Z,7.30
2022-08-20T07:07:00.727Z,5.93
2022-08-20T07:10:07.102Z,7.27
2022-08-20T07:13:10.265Z,6.33
2022-08-20T07:16:13.438Z,6.83
2022-08-20T07:19:16.560Z,6.80
2022-08-20T07:22:20.865Z,5.90
2022-08-20T07:25:24.242Z,5.20
2022-08-20T07:28:29.507Z,5.20
2022-08-20T07:31:49.913Z,5.33
2022-08-20T07:34:52.995Z,4.87
2022-08-20T07:37:57.416Z,4.53
2022-08-20T07:41:02.257Z,4.10
2022-08-20T07:44:05.877Z,5.83
2022-08-20T07:47:08.840Z,4.43
2022-08-20T07:50:14.730Z,5.67
2022-08-20T07:53:19.309Z,3.37
2022-08-20T07:56:24.701Z,4.83
2022-08-20T07:59:27.790Z,3.33
2022-08-20T08:02:30.771Z,3.13
2022-08-20T08:05:35.472Z,2.70
2022-08-20T08:08:41.247Z,2.87
2022-08-20T08:11:49.983Z,3.63
2022-08-20T08:14:54.423Z,2.60
2022-08-20T08:18:01.162Z,5.20
2022-08-20T08:21:05.395Z,4.10
2022-08-20T08:24:12.136Z,3.27
2022-08-20T08:27:18.316Z,4.67
2022-08-20T08:30:21.495Z,6.80
2022-08-20T08:33:32.395Z,2.87
2022-08-20T08:36:35.845Z,2.63
2022-08-20T08:39:40.244Z,2.60
2022-08-20T08:42:46.781Z,3.47
2022-08-20T08:45:58.953Z,3.57
2022-08-20T08:49:02.772Z,3.57
2022-08-20T08:52:14.665Z,2.87
2022-08-20T08:55:22.870Z,3.57
2022-08-20T08:58:26.608Z,2.53
2022-08-20T09:01:56.321Z,3.03
2022-08-20T09:04:56.507Z,3.87
2022-08-20T09:08:02.545Z,2.67
2022-08-20T09:11:08.637Z,3.40
2022-08-20T09:14:12.314Z,2.83
2022-08-20T09:17:15.766Z,3.10
2022-08-20T09:20:19.342Z,3.80
2022-08-20T09:23:22.350Z,4.17
2022-08-20T09:26:29.205Z,4.33
2022-08-20T09:29:33.158Z,4.43
2022-08-20T09:32:36.481Z,5.00
2022-08-20T09:35:40.887Z,5.30
2022-08-20T09:38:43.906Z,5.33
2022-08-20T09:41:48.378Z,4.27
2022-08-20T09:44:51.625Z,5.13
2022-08-20T09:47:55.215Z,6.70
2022-08-20T09:51:00.300Z,3.00
2022-08-20T09:54:03.377Z,5.30
2022-08-20T09:57:09.968Z,3.57
2022-08-20T10:00:13.735Z,4.10
2022-08-20T10:03:17.018Z,5.63
2022-08-20T10:06:20.895Z,3.20
2022-08-20T10:09:23.944Z,5.30
2022-08-20T10:12:28.302Z,8.57
2022-08-20T10:15:35.477Z,3.87
2022-08-20T10:18:38.507Z,5.53
2022-08-20T10:21:41.646Z,5.67
2022-08-20T10:24:44.754Z,5.13
2022-08-20T10:27:49.305Z,6.70
2022-08-20T10:30:52.328Z,6.40
2022-08-20T10:33:56.615Z,3.90
2022-08-20T10:37:00.013Z,4.37
2022-08-20T10:40:03.132Z,5.93
2022-08-20T10:43:07.534Z,8.33
2022-08-20T10:46:10.628Z,6.33
2022-08-20T10:49:13.737Z,5.33
2022-08-20T10:52:17.098Z,4.70
2022-08-20T10:55:20.373Z,3.47
2022-08-20T10:58:25.349Z,5.17
2022-08-20T11:01:32.562Z,5.80
2022-08-20T11:04:38.465Z,5.23
2022-08-20T11:07:55.356Z,4.97
2022-08-20T11:11:02.919Z,7.60
2022-08-20T11:14:07.242Z,5.93
2022-08-20T11:17:10.771Z,5.53
2022-08-20T11:20:16.543Z,4.27
2022-08-20T11:23:19.525Z,4.60
2022-08-20T11:26:24.941Z,5.30
2022-08-20T11:29:33.799Z,6.27
2022-08-20T11:32:37.569Z,3.60
2022-08-20T11:35:48.530Z,7.90
2022-08-20T11:38:53.016Z,4.33
2022-08-20T11:41:56.383Z,5.77
2022-08-20T11:45:00.711Z,4.53
2022-08-20T11:48:04.065Z,4.17
2022-08-20T11:51:07.356Z,4.40
2022-08-20T11:54:10.371Z,5.83
2022-08-20T11:57:19.933Z,4.97
2022-08-20T12:00:32.918Z,5.47
2022-08-20T12:03:37.062Z,3.63
2022-08-20T12:06:40.122Z,4.63
2022-08-20T12:09:51.175Z,5.10
2022-08-20T12:12:54.516Z,5.13
2022-08-20T12:15:59.249Z,6.73
2022-08-20T12:19:02.271Z,6.03
2022-08-20T12:22:25.049Z,3.50
2022-08-20T12:25:28.347Z,5.50
2022-08-20T12:28:32.010Z,4.53
2022-08-20T12:31:36.402Z,4.67
2022-08-20T12:34:41.946Z,2.73
2022-08-20T12:37:46.099Z,3.17
2022-08-20T12:40:50.216Z,5.33
2022-08-20T12:43:53.216Z,3.03
2022-08-20T12:47:08.896Z,5.17
2022-08-20T12:50:13.918Z,4.00
2022-08-20T12:53:17.188Z,4.50
2022-08-20T12:56:20.259Z,4.73
2022-08-20T12:59:25.954Z,4.03
2022-08-20T13:02:30.555Z,2.53
2022-08-20T13:05:34.783Z,3.77
2022-08-20T13:08:37.750Z,3.00
2022-08-20T13:11:40.843Z,3.20
2022-08-20T13:14:44.442Z,3.63
2022-08-20T13:17:52.149Z,4.40
2022-08-20T13:20:55.145Z,3.55
2022-08-20T13:23:58.170Z,2.78
2022-08-20T13:27:09.159Z,7.80
2022-08-20T13:30:15.229Z,4.65
2022-08-20T13:33:19.561Z,5.40
2022-08-20T13:36:22.621Z,4.15
2022-08-20T13:39:25.775Z,3.20
2022-08-20T13:42:28.906Z,4.50
2022-08-20T13:45:31.920Z,5.33
2022-08-20T13:48:36.324Z,4.13
2022-08-20T13:51:39.326Z,4.33
2022-08-20T13:54:42.336Z,3.60
2022-08-20T13:57:45.689Z,5.27
2022-08-20T14:00:48.842Z,5.43
2022-08-20T14:03:53.154Z,4.17
2022-08-20T14:06:56.147Z,3.87
2022-08-20T14:10:01.600Z,4.70
2022-08-20T14:13:05.683Z,3.33
2022-08-20T14:16:25.344Z,3.37
2022-08-20T14:19:32.027Z,3.07
2022-08-20T14:22:36.776Z,2.87
2022-08-20T14:25:40.110Z,4.53
2022-08-20T14:28:43.097Z,4.80
2022-08-20T14:31:46.109Z,3.33
2022-08-20T14:34:50.435Z,3.60
2022-08-20T14:37:56.476Z,3.90
2022-08-20T14:40:59.757Z,3.30
2022-08-20T14:44:05.284Z,2.73
2022-08-20T14:47:17.467Z,2.97
2022-08-20T14:50:26.035Z,5.13
2022-08-20T14:53:29.053Z,2.40
2022-08-20T14:56:32.065Z,3.03
2022-08-20T14:59:36.746Z,3.47
2022-08-20T15:02:40.256Z,3.23
2022-08-20T15:05:44.602Z,2.63
2022-08-20T15:08:47.613Z,1.40
2022-08-20T15:11:50.814Z,4.17
2022-08-20T15:14:53.909Z,2.33
2022-08-20T15:18:00.870Z,4.97
2022-08-20T15:21:05.273Z,5.20
2022-08-20T15:24:15.802Z,3.30
2022-08-20T15:27:26.088Z,3.07
2022-08-20T15:30:31.527Z,3.83
2022-08-20T15:33:34.602Z,2.33
2022-08-20T15:36:38.951Z,2.93
2022-08-20T15:39:45.465Z,3.20
2022-08-20T15:42:49.335Z,2.30
2022-08-20T15:45:52.430Z,4.00
2022-08-20T15:48:55.481Z,3.40
2022-08-20T15:51:59.847Z,5.17
2022-08-20T15:55:03.672Z,3.83
2022-08-20T15:58:13.229Z,2.70
2022-08-20T16:01:26.218Z,1.63
2022-08-20T16:05:02.159Z,1.40
2022-08-20T16:08:17.789Z,3.70
2022-08-20T16:11:30.227Z,2.53
2022-08-20T16:14:38.802Z,2.03
2022-08-20T16:17:47.574Z,1.70
2022-08-20T16:20:54.556Z,2.77
2022-08-20T16:23:59.262Z,2.60
2022-08-20T16:27:13.416Z,3.03
2022-08-20T16:30:21.757Z,2.83
2022-08-20T16:33:30.483Z,3.30
2022-08-20T16:36:38.498Z,2.80
2022-08-20T16:39:53.104Z,1.70
2022-08-20T16:42:59.666Z,2.57
2022-08-20T16:46:05.564Z,3.00
2022-08-20T16:49:13.383Z,1.90
2022-08-20T16:52:16.887Z,2.10
2022-08-20T16:55:24.601Z,2.63
2022-08-20T16:58:27.656Z,3.57
2022-08-20T17:01:30.847Z,3.80
2022-08-20T17:04:34.162Z,2.57
2022-08-20T17:07:46.157Z,4.67
2022-08-20T17:11:00.792Z,2.63
2022-08-20T17:14:10.522Z,2.37
2022-08-20T17:17:21.130Z,4.10
2022-08-20T17:20:28.039Z,2.40
2022-08-20T17:23:54.595Z,3.27
2022-08-20T17:27:04.316Z,1.43
2022-08-20T17:30:22.658Z,2.17
2022-08-20T17:33:32.406Z,3.73
2022-08-20T17:36:35.460Z,2.73
2022-08-20T17:39:48.520Z,2.47
2022-08-20T17:42:56.785Z,2.73
2022-08-20T17:46:03.814Z,3.57
2022-08-20T17:49:09.679Z,2.80
2022-08-20T17:52:17.657Z,2.53
2022-08-20T17:55:21.676Z,2.60
2022-08-20T17:58:36.706Z,2.40
2022-08-20T18:01:41.781Z,2.70
2022-08-20T18:04:46.573Z,2.67
2022-08-20T18:08:10.041Z,3.40
2022-08-20T18:11:20.174Z,2.17
2022-08-20T18:14:42.702Z,1.60
2022-08-20T18:18:04.962Z,2.60
2022-08-20T18:21:28.301Z,3.13
2022-08-20T18:24:39.493Z,2.77
2022-08-20T18:27:48.245Z,2.90
2022-08-20T18:30:57.138Z,4.93
2022-08-20T18:34:12.539Z,2.47
2022-08-20T18:37:25.998Z,2.80
2022-08-20T18:40:33.225Z,2.27
2022-08-20T18:43:36.734Z,2.93
2022-08-20T18:46:55.064Z,1.80
2022-08-20T18:50:06.535Z,3.13
2022-08-20T18:53:23.131Z,2.40
2022-08-20T18:56:38.091Z,3.77
2022-08-20T18:59:45.262Z,2.33
2022-08-20T19:02:56.691Z,4.00
2022-08-20T19:06:25.461Z,2.30
2022-08-20T19:09:47.064Z,3.27
2022-08-20T19:13:26.305Z,3.60
2022-08-20T19:16:34.998Z,1.77
2022-08-20T19:19:39.842Z,2.53
2022-08-20T19:22:44.194Z,5.03
2022-08-20T19:25:55.224Z,2.47
2022-08-20T19:29:02.241Z,4.03
2022-08-20T19:32:08.169Z,2.67
2022-08-20T19:35:18.892Z,2.50
2022-08-20T19:38:22.749Z,1.37
2022-08-20T19:41:31.503Z,5.73
2022-08-20T19:44:40.492Z,3.43
2022-08-20T19:47:55.375Z,2.57
2022-08-20T19:51:15.619Z,3.73
2022-08-20T19:54:23.721Z,2.57
2022-08-20T19:57:27.322Z,3.67
2022-08-20T20:00:38.570Z,3.37
2022-08-20T20:03:41.617Z,3.03
2022-08-20T20:06:48.107Z,4.40
2022-08-20T20:09:54.574Z,2.03
2022-08-20T20:12:58.127Z,3.50
2022-08-20T20:16:04.069Z,2.87
2022-08-20T20:19:25.897Z,2.53
2022-08-20T20:22:33.287Z,4.47
2022-08-20T20:25:41.851Z,4.10
2022-08-20T20:28:48.087Z,3.50
2022-08-20T20:31:54.129Z,3.00
2022-08-20T20:35:00.420Z,3.03
2022-08-20T20:38:09.222Z,4.93
2022-08-20T20:41:21.690Z,4.10
2022-08-20T20:44:27.701Z,5.17
2022-08-20T20:47:33.490Z,3.47
2022-08-20T20:50:39.581Z,5.17
2022-08-20T20:53:54.442Z,4.23
2022-08-20T20:57:01.162Z,2.60
2022-08-20T21:00:07.035Z,5.47
2022-08-20T21:03:10.037Z,2.83
2022-08-20T21:06:13.039Z,3.33
2022-08-20T21:09:18.646Z,3.53
2022-08-20T21:12:22.720Z,6.03
2022-08-20T21:15:26.827Z,5.47
2022-08-20T21:18:31.737Z,3.80
2022-08-20T21:21:35.546Z,4.63
2022-08-20T21:24:39.975Z,4.23
2022-08-20T21:27:46.449Z,5.10
2022-08-20T21:30:51.565Z,3.50
2022-08-20T21:34:01.726Z,4.87
2022-08-20T21:37:05.032Z,3.77
2022-08-20T21:40:11.155Z,3.43
2022-08-20T21:43:14.225Z,4.73
2022-08-20T21:46:17.666Z,5.57
2022-08-20T21:49:29.491Z,5.07
2022-08-20T21:52:32.511Z,4.43
2022-08-20T21:55:41.247Z,3.10
2022-08-20T21:58:45.806Z,2.70
2022-08-20T22:01:48.883Z,3.70
2022-08-20T22:04:51.915Z,2.80
2022-08-20T22:07:57.056Z,4.53
2022-08-20T22:11:02.260Z,2.47
2022-08-20T22:14:08.213Z,3.70
2022-08-20T22:17:11.226Z,3.97
2022-08-20T22:20:14.291Z,5.43
2022-08-20T22:23:17.467Z,3.33
2022-08-20T22:26:22.366Z,5.90
2022-08-20T22:29:30.427Z,4.30
2022-08-20T22:32:50.485Z,3.13
2022-08-20T22:35:57.529Z,5.23
2022-08-20T22:39:00.795Z,4.43
2022-08-20T22:42:05.691Z,3.67
2022-08-20T22:45:11.599Z,3.77
2022-08-20T22:48:19.907Z,5.23
2022-08-20T22:51:34.735Z,4.67
2022-08-20T22:54:38.921Z,6.30
2022-08-20T22:57:48.927Z,4.77
2022-08-20T23:00:52.170Z,2.70
2022-08-20T23:04:01.027Z,4.37
2022-08-20T23:07:05.191Z,3.97
2022-08-20T23:10:09.290Z,4.23
2022-08-20T23:13:13.657Z,4.27
2022-08-20T23:16:16.702Z,2.67
2022-08-20T23:19:22.413Z,5.17
2022-08-20T23:22:25.674Z,6.23
2022-08-20T23:25:29.117Z,5.60
2022-08-20T23:28:34.037Z,4.37
2022-08-20T23:31:37.053Z,5.17
2022-08-20T23:34:40.722Z,5.17
2022-08-20T23:37:48.407Z,5.27
2022-08-20T23:40:51.416Z,5.27
2022-08-20T23:43:55.772Z,4.17
2022-08-20T23:47:01.143Z,4.47
2022-08-20T23:50:05.342Z,3.90
2022-08-20T23:53:08.393Z,3.97
2022-08-20T23:56:11.690Z,5.50
2022-08-20T23:59:16.022Z,4.23
